Nashville, Tennessee
Traffic Map
Current Weather Conditions
Nashville, Tennessee
Scattered Clouds
Scattered Clouds
18°
Feels Like: 18°
Wind Chill: 18° Ceiling: Unl
Heat Index: 18° Visibility: 10mi
Dew Point: Wind: 15mph
Humidity: 30% Direction: 180° (S)
Pressure: 30.17in Gusts: 24mph
Raw Report DataKBNA 222053Z 18013G21KT 10SM SCT100 SCT250 18/00 A3017 RMK AO2 SLP213 T01780000 56031
Traffic Incident Summary
Active as of:
Severity:
Category:
InformationThere was an issue retrieving the traffic information for this location. Please try a different location or try again shortly.
Advertisements
Track Severe Weather on mobile